This is the latest recevied weather packets stored in our database for station/object WA1TYB-13. If no packets are shown the sender has not sent any weather packets the latest 10 day(s).
| Time | Temp. | Humidity | Pressure | Rain* | Wind** | Luminosity | Snow |
|---|---|---|---|---|---|---|---|
| 1777620747 | 3.89° C | 61% | 1022.3 hPa | 0 mm | - | 0 W/m² | - |
| 1777620443 | 3.33° C | 64% | 1022.4 hPa | 0 mm | - | 0 W/m² | - |
| 1777620141 | 2.22° C | 68% | 1022.2 hPa | 0 mm | - | 0 W/m² | - |
| 1777619837 | 3.33° C | 62% | 1021.8 hPa | 0 mm | - | 0 W/m² | - |
| 1777619533 | 3.89° C | 59% | 1021.8 hPa | 0 mm | - | 0 W/m² | - |
| 1777619233 | 4.44° C | 58% | 1022 hPa | 0 mm | - | 0 W/m² | - |
| 1777618927 | 5° C | 56% | 1022.1 hPa | 0 mm | - | 0 W/m² | - |
| 1777618623 | 5° C | 55% | 1022 hPa | 0 mm | - | 0 W/m² | - |
| 1777618318 | 5° C | 55% | 1022.1 hPa | 0 mm | - | 0 W/m² | - |
| 1777618015 | 4.44° C | 57% | 1022.1 hPa | 0 mm | - | 0 W/m² | - |
| 1777617711 | 4.44° C | 58% | 1022.1 hPa | 0 mm | - | 0 W/m² | - |
| 1777617406 | 5° C | 56% | 1022 hPa | 0 mm | - | 0 W/m² | - |
| 1777617104 | 5° C | 57% | 1022 hPa | 0 mm | - | 0 W/m² | - |
| 1777616799 | 5° C | 55% | 1022.3 hPa | 0 mm | - | 0 W/m² | - |
| 1777616495 | 5° C | 57% | 1022.3 hPa | 0 mm | - | 0 W/m² | - |
| 1777616190 | 5° C | 58% | 1022.3 hPa | 0 mm | - | 0 W/m² | - |
| 1777615887 | 5° C | 57% | 1022.1 hPa | 0 mm | - | 0 W/m² | - |
| 1777615578 | 5.56° C | 56% | 1022.2 hPa | 0 mm | - | 0 W/m² | - |
| 1777615275 | 5° C | 56% | 1022.1 hPa | 0 mm | - | 0 W/m² | - |
| 1777614968 | 6.11° C | 53% | 1022.2 hPa | 0 mm | - | 0 W/m² | - |
| 1777614665 | 6.11° C | 52% | 1022 hPa | 0 mm | - | 0 W/m² | - |
| 1777614361 | 6.11° C | 53% | 1022.1 hPa | 0 mm | - | 0 W/m² | - |
| 1777614056 | 6.11° C | 53% | 1022.1 hPa | 0 mm | - | 0 W/m² | - |
| 1777613751 | 6.11° C | 53% | 1022.1 hPa | 0 mm | - | 0 W/m² | - |
| 1777613450 | 6.11° C | 53% | 1022 hPa | 0 mm | - | 0 W/m² | - |
* Rain latest hour (hover to see other rain measurements)
** Current wind speed in m/s (hover to see current wind gust speed)